Time;durP1;ratioP1;P1;durP2;ratioP2;P2;SDS_P1;SDS_P2;PMS_P1;PMS_P2;Temp;Humidity;BMP_temperature;BMP_pressure;BME280_temperature;BME280_humidity;BME280_pressure;Samples;Min_cycle;Max_cycle;Signal;HPM_P1;HPM_P2
2023/10/21 00:01:29;;;;;;;;;0.00;0.00;;;;;15.05;100.00;98212.94;6335240;22;45369;-86
2023/10/21 00:03:54;;;;;;;;;0.00;0.00;;;;;15.13;100.00;98216.66;6334256;22;49856;-86
2023/10/21 00:06:25;;;;;;;;;0.00;0.00;;;;;15.15;100.00;98220.81;6308245;22;45265;-86
2023/10/21 00:08:51;;;;;;;;;0.00;0.00;;;;;15.13;100.00;98217.50;6335819;22;45319;-87
2023/10/21 00:11:19;;;;;;;;;0.00;0.00;;;;;15.18;100.00;98223.16;6334206;22;56145;-87
2023/10/21 00:13:44;;;;;;;;;0.00;0.00;;;;;15.18;100.00;98228.41;6333976;22;46289;-84
2023/10/21 00:16:11;;;;;;;;;0.00;0.00;;;;;15.10;100.00;98210.75;6336259;22;45264;-84
2023/10/21 00:18:39;;;;;;;;;0.00;0.00;;;;;14.96;100.00;98208.50;6334804;22;45267;-84
2023/10/21 00:21:07;;;;;;;;;0.00;0.00;;;;;14.84;100.00;98214.78;6308352;22;45452;-85
2023/10/21 00:23:42;;;;;;;;;0.00;0.00;;;;;14.71;100.00;98215.88;6307970;22;47412;-86
2023/10/21 00:26:07;;;;;;;;;0.75;0.00;;;;;14.59;100.00;98235.25;6308370;22;45298;-84
2023/10/21 00:28:35;;;;;;;;;0.00;0.00;;;;;14.52;100.00;98253.25;6307430;22;58965;-85
2023/10/21 00:31:04;;;;;;;;;0.00;0.00;;;;;14.41;100.00;98247.25;6334321;22;45451;-87
2023/10/21 00:33:39;;;;;;;;;0.00;0.00;;;;;14.31;100.00;98240.16;6334391;22;45577;-88
2023/10/21 00:36:04;;;;;;;;;0.00;0.00;;;;;14.16;100.00;98257.16;6334646;22;45279;-87
2023/10/21 00:38:30;;;;;;;;;0.00;0.00;;;;;14.05;100.00;98297.28;6335710;22;45403;-86
2023/10/21 00:41:06;;;;;;;;;0.00;0.00;;;;;13.96;100.00;98278.91;6333982;22;67732;-88
2023/10/21 00:43:32;;;;;;;;;0.00;0.00;;;;;13.94;100.00;98285.06;6334264;22;48391;-88
2023/10/21 00:46:27;;;;;;;;;0.00;0.00;;;;;13.83;100.00;98292.97;6336289;22;45370;-88
2023/10/21 00:48:53;;;;;;;;;0.00;0.00;;;;;13.80;100.00;98327.22;6336079;22;45281;-86
2023/10/21 00:51:19;;;;;;;;;0.00;0.00;;;;;13.79;100.00;98343.84;6334758;22;45312;-87
2023/10/21 00:53:45;;;;;;;;;0.00;0.00;;;;;13.74;100.00;98328.53;6335987;22;46228;-88
2023/10/21 00:56:12;;;;;;;;;0.00;0.00;;;;;13.79;100.00;98348.25;6334403;22;45310;-87
2023/10/21 00:58:37;;;;;;;;;0.00;0.00;;;;;13.80;100.00;98347.28;6334623;22;45238;-87
2023/10/21 01:01:09;;;;;;;;;0.00;0.00;;;;;13.85;100.00;98360.81;6334312;22;45543;-87
2023/10/21 01:03:35;;;;;;;;;0.00;0.00;;;;;13.87;100.00;98366.75;6334175;22;46603;-87
2023/10/21 01:06:00;;;;;;;;;0.00;0.00;;;;;13.90;100.00;98359.50;6335889;22;45288;-87
2023/10/21 01:08:26;;;;;;;;;0.00;0.00;;;;;13.93;100.00;98374.13;6336453;22;45221;-88
2023/10/21 01:10:54;;;;;;;;;0.00;0.00;;;;;13.92;100.00;98386.34;6334373;22;45290;-87
2023/10/21 01:13:20;;;;;;;;;0.00;0.00;;;;;13.93;100.00;98390.66;6308239;22;48246;-88
2023/10/21 01:15:45;;;;;;;;;0.00;0.00;;;;;13.98;100.00;98386.81;6334751;22;66160;-88
2023/10/21 01:18:13;;;;;;;;;0.00;0.00;;;;;13.96;100.00;98389.56;6308222;22;45277;-87
2023/10/21 01:20:43;;;;;;;;;0.00;0.00;;;;;13.98;100.00;98394.66;6335967;22;45555;-88
2023/10/21 01:23:13;;;;;;;;;0.00;0.00;;;;;13.98;100.00;98400.72;6334734;22;46688;-87
2023/10/21 01:25:41;;;;;;;;;0.00;0.00;;;;;13.96;100.00;98393.97;6334363;22;45809;-88
2023/10/21 01:28:06;;;;;;;;;0.00;0.00;;;;;13.96;100.00;98407.88;6308020;22;45559;-88
2023/10/21 01:30:32;;;;;;;;;0.00;0.00;;;;;13.98;100.00;98424.25;6336062;22;45486;-85
2023/10/21 01:33:05;;;;;;;;;0.00;0.00;;;;;13.94;100.00;98433.31;6334973;22;63557;-90
2023/10/21 01:35:30;;;;;;;;;0.00;0.00;;;;;13.96;100.00;98430.59;6333983;22;67821;-86
2023/10/21 01:37:55;;;;;;;;;0.00;0.00;;;;;13.93;100.00;98442.13;6307731;22;45594;-86
2023/10/21 01:40:21;;;;;;;;;0.00;0.00;;;;;13.96;100.00;98439.25;6333757;22;59233;-86
2023/10/21 01:43:08;;;;;;;;;0.00;0.00;;;;;14.01;100.00;98438.91;6335184;22;49819;-88
2023/10/21 01:45:57;;;;;;;;;0.00;0.00;;;;;14.04;100.00;98459.56;6334408;22;45374;-88
2023/10/21 01:48:22;;;;;;;;;0.00;0.00;;;;;14.03;100.00;98450.91;6335745;22;45339;-87
2023/10/21 01:50:47;;;;;;;;;0.00;0.00;;;;;14.02;100.00;98464.94;6333634;22;45617;-86
2023/10/21 01:53:16;;;;;;;;;0.00;0.00;;;;;14.07;100.00;98464.56;6333344;22;67722;-87
2023/10/21 01:55:42;;;;;;;;;0.00;0.00;;;;;14.02;100.00;98462.31;6307948;22;45812;-87
2023/10/21 01:58:10;;;;;;;;;0.00;0.00;;;;;14.04;100.00;98476.13;6336864;22;45277;-87
2023/10/21 02:00:38;;;;;;;;;0.00;0.00;;;;;14.06;100.00;98484.66;6335697;22;45377;-87
2023/10/21 02:03:13;;;;;;;;;0.00;0.00;;;;;14.04;100.00;98483.09;6336545;22;45421;-88
2023/10/21 02:05:38;;;;;;;;;0.00;0.00;;;;;14.02;100.00;98479.78;6336686;22;45368;-86
2023/10/21 02:08:04;;;;;;;;;0.00;0.00;;;;;14.14;100.00;98495.34;6335333;22;45320;-87
2023/10/21 02:10:32;;;;;;;;;0.00;0.00;;;;;14.11;100.00;98494.75;6337048;22;45323;-85
2023/10/21 02:12:58;;;;;;;;;0.00;0.00;;;;;14.13;100.00;98495.47;6354827;22;46142;-87
2023/10/21 02:15:23;;;;;;;;;0.00;0.00;;;;;14.09;100.00;98501.88;6340836;22;45225;-87
2023/10/21 02:17:48;;;;;;;;;0.00;0.00;;;;;14.03;100.00;98499.78;6314498;22;45545;-87
2023/10/21 02:20:14;;;;;;;;;0.00;0.00;;;;;14.02;100.00;98504.19;6340466;22;45468;-87
2023/10/21 02:22:40;;;;;;;;;0.00;0.00;;;;;14.01;100.00;98512.13;6340692;22;46040;-86
2023/10/21 02:25:07;;;;;;;;;0.00;0.00;;;;;14.00;100.00;98507.84;6368972;22;45290;-86
2023/10/21 02:27:33;;;;;;;;;0.00;0.00;;;;;14.04;100.00;98523.19;6369144;22;45297;-86
2023/10/21 02:29:59;;;;;;;;;0.00;0.00;;;;;14.02;100.00;98526.88;6313957;22;45473;-86
2023/10/21 02:32:24;;;;;;;;;0.75;0.00;;;;;13.95;100.00;98526.53;6367774;22;46110;-86
2023/10/21 02:34:53;;;;;;;;;0.00;0.00;;;;;13.89;100.00;98545.28;6367931;22;49251;-86
2023/10/21 02:37:19;;;;;;;;;0.00;0.00;;;;;13.80;100.00;98531.16;6313991;22;45307;-86
2023/10/21 02:39:44;;;;;;;;;0.00;0.00;;;;;13.79;100.00;98541.75;6368507;22;45403;-87
2023/10/21 02:42:10;;;;;;;;;0.00;0.00;;;;;13.77;100.00;98541.84;6340863;22;45513;-86
2023/10/21 02:44:35;;;;;;;;;3.00;0.00;;;;;13.75;100.00;98541.97;6339937;22;49108;-87
2023/10/21 02:47:01;;;;;;;;;0.00;0.00;;;;;13.78;100.00;98558.38;6368067;22;45310;-86
2023/10/21 02:49:26;;;;;;;;;0.00;0.00;;;;;13.81;100.00;98555.53;6340328;22;45254;-87
2023/10/21 02:51:51;;;;;;;;;0.00;0.00;;;;;13.75;100.00;98560.28;6340423;22;45665;-87
2023/10/21 02:54:19;;;;;;;;;0.00;0.00;;;;;13.75;100.00;98557.66;6368070;22;45316;-87
2023/10/21 02:56:45;;;;;;;;;0.00;0.00;;;;;13.80;100.00;98562.53;6368373;22;45225;-86
2023/10/21 02:59:10;;;;;;;;;0.00;0.00;;;;;13.83;100.00;98566.69;6368185;22;55478;-84
2023/10/21 03:01:35;;;;;;;;;0.00;0.00;;;;;13.84;100.00;98568.38;6340104;22;46168;-84
2023/10/21 03:04:01;;;;;;;;;0.00;0.00;;;;;13.76;100.00;98568.94;6368819;22;45358;-84
2023/10/21 03:06:26;;;;;;;;;0.00;0.00;;;;;13.80;100.00;98578.22;6339758;22;48548;-84
2023/10/21 03:08:51;;;;;;;;;0.00;0.00;;;;;13.74;100.00;98583.91;6340328;22;45296;-83
2023/10/21 03:11:17;;;;;;;;;0.00;0.00;;;;;13.82;100.00;98602.47;6367992;22;45933;-84
2023/10/21 03:13:43;;;;;;;;;0.00;0.00;;;;;13.80;100.00;98593.06;6367960;22;45322;-83
2023/10/21 03:16:11;;;;;;;;;0.00;0.00;;;;;13.84;100.00;98597.97;6339816;22;45321;-87
2023/10/21 03:18:38;;;;;;;;;1.00;0.00;;;;;13.83;100.00;98600.69;6340791;22;45278;-86
2023/10/21 03:21:04;;;;;;;;;0.00;0.00;;;;;13.80;100.00;98607.00;6367817;22;45394;-86
2023/10/21 03:23:30;;;;;;;;;0.00;0.00;;;;;13.75;100.00;98599.50;6340515;22;45310;-86
2023/10/21 03:25:56;;;;;;;;;0.00;0.00;;;;;13.75;100.00;98602.09;6340221;22;45390;-85
2023/10/21 03:28:23;;;;;;;;;0.00;0.00;;;;;13.73;100.00;98611.03;6313864;22;45478;-87
2023/10/21 03:30:49;;;;;;;;;0.25;0.00;;;;;13.65;100.00;98615.97;6368129;22;45409;-85
2023/10/21 03:33:15;;;;;;;;;0.00;0.00;;;;;13.62;100.00;98617.06;6368030;22;45629;-86
2023/10/21 03:35:43;;;;;;;;;0.00;0.00;;;;;13.53;100.00;98623.81;6340853;22;45422;-87
2023/10/21 03:38:08;;;;;;;;;0.00;0.00;;;;;13.49;100.00;98624.16;6340112;22;45406;-86
2023/10/21 03:40:34;;;;;;;;;0.00;0.00;;;;;13.41;100.00;98611.66;6338930;22;68076;-86
2023/10/21 03:42:59;;;;;;;;;0.00;0.00;;;;;13.39;100.00;98624.03;6314004;22;45342;-87
2023/10/21 03:45:25;;;;;;;;;0.00;0.00;;;;;13.34;100.00;98605.22;6339521;22;45276;-85
2023/10/21 03:47:50;;;;;;;;;0.00;0.00;;;;;13.35;100.00;98612.97;6368741;22;45205;-86
2023/10/21 03:50:18;;;;;;;;;0.00;0.00;;;;;13.31;100.00;98626.34;6367861;22;46177;-87
2023/10/21 03:52:43;;;;;;;;;0.00;0.00;;;;;13.31;100.00;98640.25;6340122;22;45258;-86
2023/10/21 03:55:11;;;;;;;;;0.00;0.00;;;;;13.29;100.00;98625.59;6338905;22;65006;-86
2023/10/21 03:57:37;;;;;;;;;0.00;0.00;;;;;13.28;100.00;98636.97;6368575;22;45257;-86
2023/10/21 04:00:05;;;;;;;;;0.00;0.00;;;;;13.31;100.00;98645.47;6339101;22;47085;-86
2023/10/21 04:02:31;;;;;;;;;0.00;0.00;;;;;13.28;100.00;98647.44;6340568;22;45269;-86
2023/10/21 04:04:56;;;;;;;;;0.75;0.00;;;;;13.26;100.00;98642.34;6368163;22;45233;-86
2023/10/21 04:07:23;;;;;;;;;0.00;0.00;;;;;13.24;100.00;98657.31;6368530;22;45242;-87
2023/10/21 04:09:48;;;;;;;;;0.00;0.00;;;;;13.19;100.00;98669.88;6368124;22;46441;-86
2023/10/21 04:12:14;;;;;;;;;0.00;0.00;;;;;13.22;100.00;98668.78;6368027;22;45264;-86
2023/10/21 04:14:39;;;;;;;;;0.00;0.00;;;;;13.22;100.00;98667.00;6367579;22;45369;-86
2023/10/21 04:17:05;;;;;;;;;0.00;0.00;;;;;13.16;100.00;98668.28;6368104;22;45408;-86
2023/10/21 04:19:30;;;;;;;;;0.00;0.00;;;;;13.16;100.00;98675.28;6367043;22;45493;-86
2023/10/21 04:21:58;;;;;;;;;0.00;0.00;;;;;13.09;100.00;98680.16;6339108;22;55049;-87
2023/10/21 04:24:24;;;;;;;;;0.00;0.00;;;;;13.12;100.00;98687.75;6340058;22;45263;-86
2023/10/21 04:26:52;;;;;;;;;0.00;0.00;;;;;13.10;100.00;98678.34;6367228;22;54410;-87
2023/10/21 04:29:17;;;;;;;;;0.00;0.00;;;;;13.02;100.00;98691.97;6312999;22;47226;-87
2023/10/21 04:31:43;;;;;;;;;0.00;0.00;;;;;13.05;100.00;98696.13;6367525;22;51777;-87
2023/10/21 04:34:08;;;;;;;;;0.00;0.00;;;;;13.09;100.00;98695.81;6370276;22;45158;-87
2023/10/21 04:36:36;;;;;;;;;0.00;0.00;;;;;13.11;100.00;98691.31;6368005;22;45403;-87
2023/10/21 04:39:02;;;;;;;;;0.00;0.00;;;;;13.23;100.00;98707.88;6313605;22;47061;-87
2023/10/21 04:41:27;;;;;;;;;0.00;0.00;;;;;13.19;100.00;98711.66;6339932;22;45319;-84
2023/10/21 04:43:53;;;;;;;;;0.00;0.00;;;;;13.23;100.00;98702.66;6312210;22;62006;-84
2023/10/21 04:46:18;;;;;;;;;0.00;0.00;;;;;13.25;100.00;98703.38;6339963;22;45313;-84
2023/10/21 04:48:53;;;;;;;;;0.00;0.00;;;;;13.28;100.00;98721.44;6339736;22;46401;-84
2023/10/21 04:51:28;;;;;;;;;0.00;0.00;;;;;13.29;100.00;98719.66;6339791;22;45746;-87
2023/10/21 04:53:53;;;;;;;;;0.00;0.00;;;;;13.29;100.00;98725.72;6340466;22;45375;-88
2023/10/21 04:56:19;;;;;;;;;0.00;0.00;;;;;13.32;100.00;98720.31;6339851;22;45434;-87
2023/10/21 04:58:44;;;;;;;;;0.00;0.00;;;;;13.32;100.00;98735.97;6339535;22;45430;-87
2023/10/21 05:01:10;;;;;;;;;0.00;0.00;;;;;13.35;100.00;98740.13;6340114;22;45489;-87
2023/10/21 05:03:36;;;;;;;;;0.00;0.00;;;;;13.29;100.00;98736.16;6368659;22;45312;-86
2023/10/21 05:06:04;;;;;;;;;0.00;0.00;;;;;13.31;100.00;98738.69;6340216;22;45368;-93
2023/10/21 05:08:31;;;;;;;;;0.00;0.00;;;;;13.31;100.00;98757.00;6339956;22;45654;-86
2023/10/21 05:10:57;;;;;;;;;0.00;0.00;;;;;13.34;100.00;98751.56;6368394;22;45791;-86
2023/10/21 05:13:23;;;;;;;;;0.00;0.00;;;;;13.34;100.00;98748.94;6367084;22;45320;-86
2023/10/21 05:15:49;;;;;;;;;0.00;0.00;;;;;13.35;100.00;98751.44;6339667;22;45305;-87
2023/10/21 05:18:32;;;;;;;;;0.00;0.00;;;;;13.33;100.00;98744.66;6339565;22;48714;-87
2023/10/21 05:20:59;;;;;;;;;0.00;0.00;;;;;13.28;100.00;98750.19;6313322;22;45714;-87
2023/10/21 05:23:25;;;;;;;;;0.00;0.00;;;;;13.18;100.00;98757.00;6340308;22;45302;-86
2023/10/21 05:25:50;;;;;;;;;0.00;0.00;;;;;13.13;100.00;98756.47;6313007;22;51468;-86
2023/10/21 05:28:16;;;;;;;;;0.00;0.00;;;;;13.01;100.00;98762.59;6339477;22;45272;-86
2023/10/21 05:30:43;;;;;;;;;0.00;0.00;;;;;13.04;100.00;98764.97;6367712;22;45229;-86
2023/10/21 05:33:08;;;;;;;;;0.00;0.00;;;;;12.94;100.00;98770.84;6367858;22;45451;-87
2023/10/21 05:35:34;;;;;;;;;0.00;0.00;;;;;12.99;100.00;98773.16;6339607;22;45591;-86
2023/10/21 05:38:01;;;;;;;;;0.00;0.00;;;;;13.02;100.00;98780.78;6339349;22;47076;-87
2023/10/21 05:40:27;;;;;;;;;0.00;0.00;;;;;13.03;100.00;98781.59;6339929;22;45373;-86
2023/10/21 05:42:52;;;;;;;;;0.00;0.00;;;;;13.00;100.00;98787.88;6312906;22;45329;-84
2023/10/21 05:45:27;;;;;;;;;0.00;0.00;;;;;13.01;100.00;98783.50;6339920;22;45297;-85
2023/10/21 05:47:55;;;;;;;;;2.25;0.75;;;;;12.99;100.00;98778.38;6367362;22;46205;-84
2023/10/21 05:50:24;;;;;;;;;1.00;0.00;;;;;12.98;100.00;98772.31;6339421;22;45239;-85
2023/10/21 05:52:51;;;;;;;;;0.00;0.00;;;;;12.97;100.00;98791.53;6339970;22;45174;-84
2023/10/21 05:55:17;;;;;;;;;0.00;0.00;;;;;13.01;100.00;98791.31;6367056;22;45261;-82
2023/10/21 05:57:45;;;;;;;;;0.00;0.00;;;;;12.96;100.00;98802.94;6339888;22;45328;-84
2023/10/21 06:00:12;;;;;;;;;0.00;0.00;;;;;12.96;100.00;98802.06;6367374;22;45217;-86
2023/10/21 06:02:37;;;;;;;;;0.00;0.00;;;;;12.93;100.00;98797.91;6367432;22;45277;-86
2023/10/21 06:05:05;;;;;;;;;0.00;0.00;;;;;12.96;100.00;98791.63;6370143;22;45197;-87
2023/10/21 06:07:30;;;;;;;;;0.00;0.00;;;;;12.94;100.00;98798.75;6367585;22;46351;-84
2023/10/21 06:09:56;;;;;;;;;0.00;0.00;;;;;12.91;100.00;98814.63;6367313;22;45282;-82
2023/10/21 06:12:21;;;;;;;;;0.00;0.00;;;;;12.93;100.00;98800.53;6366697;22;52109;-84
2023/10/21 06:14:47;;;;;;;;;0.75;0.00;;;;;12.88;100.00;98800.00;6339726;22;45454;-87
2023/10/21 06:17:17;;;;;;;;;0.00;0.00;;;;;12.89;100.00;98796.47;6313354;22;47739;-87
2023/10/21 06:19:48;;;;;;;;;0.00;0.00;;;;;12.89;100.00;98795.59;6339345;22;45477;-87
2023/10/21 06:22:17;;;;;;;;;0.00;0.00;;;;;12.92;100.00;98800.63;6367511;22;45398;-87
2023/10/21 06:24:43;;;;;;;;;0.00;0.00;;;;;12.91;100.00;98802.41;6366961;22;45344;-84
2023/10/21 06:27:09;;;;;;;;;0.00;0.00;;;;;12.96;100.00;98816.00;6339222;22;46401;-87
2023/10/21 06:30:18;;;;;;;;;0.00;0.00;;;;;13.02;100.00;98808.66;6341976;22;45317;-96
2023/10/21 06:52:46;;;;;;;;;0.00;0.00;;;;;13.37;100.00;98829.72;6304453;22;45485;-92
2023/10/21 06:55:50;;;;;;;;;0.00;0.00;;;;;13.43;100.00;98865.88;6348427;22;45464;-91
2023/10/21 06:58:15;;;;;;;;;0.00;0.00;;;;;13.42;100.00;98845.91;6372216;22;45393;-89
2023/10/21 07:00:40;;;;;;;;;0.00;0.00;;;;;13.43;100.00;98859.78;6369163;22;46698;-87
2023/10/21 07:03:06;;;;;;;;;0.00;0.00;;;;;13.39;100.00;98846.16;6341159;22;45526;-86
2023/10/21 07:05:32;;;;;;;;;0.00;0.00;;;;;13.43;100.00;98859.78;6367647;22;45270;-87
2023/10/21 07:07:59;;;;;;;;;0.00;0.00;;;;;13.44;100.00;98861.47;6368339;22;45505;-89
2023/10/21 07:10:29;;;;;;;;;0.00;0.00;;;;;13.44;100.00;98856.25;6367042;22;47472;-88
2023/10/21 07:13:02;;;;;;;;;0.00;0.00;;;;;13.50;100.00;98885.41;6368776;22;45397;-90
2023/10/21 07:15:33;;;;;;;;;0.00;0.00;;;;;13.53;100.00;98893.03;6394702;22;45318;-88
2023/10/21 07:17:59;;;;;;;;;0.00;0.00;;;;;13.60;100.00;98905.69;6367598;22;45535;-87
2023/10/21 07:20:33;;;;;;;;;0.00;0.00;;;;;13.52;100.00;98891.38;6341154;22;47277;-91
2023/10/21 07:22:58;;;;;;;;;0.00;0.00;;;;;13.55;100.00;98888.53;6367107;22;45488;-89
2023/10/21 07:25:44;;;;;;;;;0.00;0.00;;;;;13.55;100.00;98903.38;6341274;22;45344;-90
2023/10/21 07:28:10;;;;;;;;;0.00;0.00;;;;;13.52;100.00;98900.97;6368922;22;45362;-89
2023/10/21 07:30:38;;;;;;;;;0.00;0.00;;;;;13.59;100.00;98904.00;6369076;22;45662;-90
2023/10/21 07:35:50;;;;;;;;;0.00;0.00;;;;;13.61;100.00;98900.31;6301829;22;45258;-85
2023/10/21 07:42:14;;;;;;;;;0.00;0.00;;;;;13.62;100.00;98906.41;6184526;23;46408;-95
2023/10/21 07:45:31;;;;;;;;;0.00;0.00;;;;;13.65;100.00;98927.94;6181956;23;45343;-89
2023/10/21 07:48:21;;;;;;;;;0.00;0.00;;;;;13.67;100.00;98933.91;6177536;23;46280;-94
2023/10/21 07:50:53;;;;;;;;;0.00;0.00;;;;;13.65;100.00;98911.41;6179667;23;45473;-89
2023/10/21 07:53:18;;;;;;;;;0.00;0.00;;;;;13.64;100.00;98939.31;6180089;23;46544;-87
2023/10/21 07:56:13;;;;;;;;;0.00;0.00;;;;;13.64;100.00;98928.03;6186883;23;53294;-94
2023/10/21 07:58:58;;;;;;;;;0.00;0.00;;;;;13.64;100.00;98941.94;6183498;23;45508;-96
2023/10/21 08:01:24;;;;;;;;;0.00;0.00;;;;;13.67;100.00;98933.91;6156822;23;45254;-90
2023/10/21 08:03:52;;;;;;;;;0.00;0.00;;;;;13.74;100.00;98940.38;6157466;23;47573;-93
2023/10/21 08:13:51;;;;;;;;;;;;;;;;;;;;;
2023/10/21 08:16:39;;;;;;;;;0.75;0.00;;;;;14.25;100.00;98941.97;6147001;23;76690;-90
2023/10/21 08:22:34;;;;;;;;;0.00;0.00;;;;;14.44;100.00;98936.22;6154988;23;45300;-89
2023/10/21 08:25:20;;;;;;;;;0.00;0.00;;;;;14.43;100.00;98934.56;6154836;23;45313;-94
2023/10/21 08:27:47;;;;;;;;;0.00;0.00;;;;;14.38;100.00;98941.91;6125374;23;45400;-89
2023/10/21 08:33:33;;;;;;;;;0.00;0.00;;;;;14.40;100.00;98940.00;6180309;23;45374;-87
2023/10/21 08:37:00;;;;;;;;;0.00;0.00;;;;;14.46;100.00;98965.72;6156151;23;45580;-89
2023/10/21 09:00:29;;;;;;;;;0.00;0.00;;;;;14.69;100.00;98952.75;5821265;24;45496;-91
2023/10/21 09:06:20;;;;;;;;;;;;;;;;;;;;;
2023/10/21 09:09:13;;;;;;;;;3.00;1.00;;;;;14.50;100.00;98982.91;5810212;24;73110;-89
2023/10/21 09:12:33;;;;;;;;;;;;;;;;;;;;;
2023/10/21 09:15:58;;;;;;;;;0.00;0.00;;;;;14.42;100.00;98974.75;5903921;24;45471;-92
2023/10/21 09:19:29;;;;;;;;;;;;;;;;;;;;;
2023/10/21 09:22:54;;;;;;;;;;;;;;;;;;;;;
2023/10/21 09:25:28;;;;;;;;;0.00;0.00;;;;;14.83;100.00;98986.59;5893727;24;70157;-88
2023/10/21 09:31:20;;;;;;;;;0.00;0.00;;;;;15.06;100.00;99000.63;5924650;23;47514;-84
2023/10/21 09:33:54;;;;;;;;;0.00;0.00;;;;;15.15;100.00;98993.84;5924673;23;46060;-89
2023/10/21 09:36:32;;;;;;;;;;;;;;;;;;;;;
2023/10/21 09:39:48;;;;;;;;;;;;;;;;;;;;;
2023/10/21 09:43:05;;;;;;;;;;;;;;;;;;;;;
2023/10/21 09:45:44;;;;;;;;;0.00;0.00;;;;;15.52;100.00;98982.34;5892002;24;71809;-90
2023/10/21 09:48:33;;;;;;;;;0.00;0.00;;;;;15.55;100.00;98982.94;5877188;24;45469;-92
2023/10/21 09:51:08;;;;;;;;;0.00;0.00;;;;;15.52;100.00;98984.94;5893149;23;45343;-92
2023/10/21 09:53:43;;;;;;;;;0.00;0.00;;;;;15.37;100.00;99002.69;5892287;23;45748;-94
2023/10/21 09:59:16;;;;;;;;;1.00;1.00;;;;;14.56;100.00;98983.38;5895908;24;45518;-85
2023/10/21 10:01:42;;;;;;;;;0.00;0.00;;;;;14.38;100.00;98986.41;5968025;23;45528;-86
2023/10/21 10:04:16;;;;;;;;;0.00;0.00;;;;;14.29;100.00;98989.69;6005805;23;46790;-86
2023/10/21 10:07:10;;;;;;;;;0.00;0.00;;;;;14.21;100.00;98995.47;6010652;23;45459;-86
2023/10/21 10:09:53;;;;;;;;;0.00;0.00;;;;;14.39;100.00;99002.94;6097336;23;45377;-89
2023/10/21 10:12:38;;;;;;;;;;;;;;;;;;;;;
2023/10/21 10:15:29;;;;;;;;;0.00;0.00;;;;;14.50;100.00;99011.69;6118216;23;75339;-86
2023/10/21 10:17:54;;;;;;;;;0.00;0.00;;;;;14.67;100.00;98989.53;6096255;23;45408;-94
2023/10/21 10:20:23;;;;;;;;;0.00;0.00;;;;;14.80;100.00;98978.13;6096737;23;45626;-86
2023/10/21 10:23:12;;;;;;;;;0.00;0.00;;;;;15.19;100.00;99003.16;6237091;22;45519;-88
2023/10/21 10:25:39;;;;;;;;;0.00;0.00;;;;;15.42;100.00;99001.38;6241123;22;45596;-86
2023/10/21 10:28:17;;;;;;;;;;;;;;;;;;;;;
2023/10/21 10:30:44;;;;;;;;;0.00;0.00;;;;;15.97;100.00;98963.97;6240657;22;69015;-95
2023/10/21 10:33:25;;;;;;;;;;;;;;;;;;;;;
2023/10/21 10:35:52;;;;;;;;;0.00;0.00;;;;;16.61;100.00;98979.75;6254933;22;76336;-89
2023/10/21 10:38:35;;;;;;;;;;;;;;;;;;;;;
2023/10/21 10:41:15;;;;;;;;;0.00;0.00;;;;;16.90;100.00;98992.34;6300511;22;70086;-87
2023/10/21 10:44:09;;;;;;;;;0.00;0.00;;;;;16.81;100.00;98998.31;6306574;22;45605;-88
2023/10/21 10:46:45;;;;;;;;;0.75;0.00;;;;;16.73;100.00;98998.09;6214475;22;47564;-84
2023/10/21 10:49:21;;;;;;;;;;;;;;;;;;;;;
2023/10/21 10:52:00;;;;;;;;;;;;;;;;;;;;;
2023/10/21 10:54:36;;;;;;;;;0.00;0.00;;;;;16.30;100.00;99017.34;6247833;22;70291;-88
2023/10/21 10:57:09;;;;;;;;;0.00;0.00;;;;;16.25;100.00;99018.56;6246488;22;45645;-90
2023/10/21 10:59:50;;;;;;;;;;;;;;;;;;;;;
2023/10/21 11:05:40;;;;;;;;;;;;;;;;;;;;;
2023/10/21 11:11:31;;;;;;;;;;;;;;;;;;;;;
2023/10/21 11:13:57;;;;;;;;;0.00;0.00;;;;;16.26;100.00;99008.88;6211201;22;68747;-89
2023/10/21 11:16:22;;;;;;;;;0.00;0.00;;;;;16.36;100.00;99017.72;6211168;22;45250;-89
2023/10/21 11:18:49;;;;;;;;;0.00;0.00;;;;;16.31;100.00;99009.34;6210750;22;48109;-87
2023/10/21 11:21:43;;;;;;;;;0.00;0.00;;;;;16.23;100.00;99012.59;6209918;22;45268;-87
2023/10/21 11:24:20;;;;;;;;;0.00;0.00;;;;;16.16;100.00;99013.22;6207968;22;45305;-89
2023/10/21 11:26:47;;;;;;;;;0.00;0.00;;;;;16.08;100.00;99019.03;6216144;22;45291;-84
2023/10/21 11:29:17;;;;;;;;;0.00;0.00;;;;;16.06;100.00;99010.47;6214975;22;46375;-88
2023/10/21 11:32:45;;;;;;;;;0.00;0.00;;;;;16.07;100.00;98999.03;6217388;22;45326;-92
2023/10/21 11:38:55;;;;;;;;;0.00;0.00;;;;;16.07;100.00;99027.91;6219867;22;45625;-92
2023/10/21 11:49:23;;;;;;;;;;;;;;;;;;;;;
2023/10/21 12:24:33;;;;;;;;;0.00;0.00;;;;;15.81;100.00;99057.00;5772076;24;44805;-93
2023/10/21 12:39:13;;;;;;;;;;;;;;;;;;;;;
2023/10/21 12:41:42;;;;;;;;;0.00;0.00;;;;;16.95;100.00;99037.44;5999527;23;71719;-93
2023/10/21 12:44:23;;;;;;;;;0.75;0.00;;;;;16.89;100.00;99026.63;6038787;23;47103;-94
2023/10/21 12:47:05;;;;;;;;;0.00;0.00;;;;;16.78;100.00;99032.72;6062211;23;45641;-91
2023/10/21 12:49:41;;;;;;;;;;;;;;;;;;;;;
2023/10/21 12:55:26;;;;;;;;;;;;;;;;;;;;;
2023/10/21 12:57:57;;;;;;;;;0.25;0.00;;;;;16.94;100.00;99062.06;6210683;22;72122;-89
2023/10/21 13:00:25;;;;;;;;;0.00;0.00;;;;;17.03;100.00;99055.22;6315530;22;45366;-90
2023/10/21 13:03:10;;;;;;;;;;;;;;;;;;;;;
2023/10/21 13:08:50;;;;;;;;;0.00;0.00;;;;;17.17;100.00;99062.78;6353998;22;45202;-92
2023/10/21 13:11:25;;;;;;;;;0.00;0.00;;;;;17.26;100.00;99041.97;6368283;22;45313;-93
2023/10/21 13:14:12;;;;;;;;;;;;;;;;;;;;;
2023/10/21 13:16:41;;;;;;;;;0.00;0.00;;;;;17.47;100.00;99034.88;6365429;22;76273;-95
2023/10/21 13:20:11;;;;;;;;;;;;;;;;;;;;;
2023/10/21 13:22:58;;;;;;;;;0.00;0.00;;;;;17.45;100.00;99063.13;6380346;22;45380;-96
2023/10/21 13:25:55;;;;;;;;;;;;;;;;;;;;;
2023/10/21 13:29:37;;;;;;;;;0.00;0.00;;;;;17.11;100.00;99067.75;6365918;22;73660;-96
2023/10/21 13:32:03;;;;;;;;;;;;;;;;;;;;;
2023/10/21 13:34:49;;;;;;;;;0.00;0.00;;;;;16.83;100.00;99078.72;6368859;22;68147;-94
2023/10/21 13:40:27;;;;;;;;;0.00;0.00;;;;;16.45;100.00;99069.50;6350467;22;46891;-88
2023/10/21 13:42:53;;;;;;;;;0.00;0.00;;;;;16.41;100.00;99069.84;6366463;22;45773;-85
2023/10/21 13:45:34;;;;;;;;;0.75;0.00;;;;;16.28;100.00;99066.53;6369083;22;45245;-95
2023/10/21 13:48:38;;;;;;;;;3.00;0.75;;;;;16.08;100.00;99081.22;6364207;22;45535;-91
2023/10/21 13:54:19;;;;;;;;;0.75;0.00;;;;;16.06;100.00;99078.69;6114799;23;45372;-90
2023/10/21 13:57:27;;;;;;;;;0.00;0.00;;;;;16.09;100.00;99078.47;6126956;23;45381;-90
2023/10/21 14:00:01;;;;;;;;;0.00;0.00;;;;;15.99;100.00;99099.34;6138848;23;45292;-87
2023/10/21 14:02:26;;;;;;;;;0.00;0.00;;;;;15.97;100.00;99103.03;6149967;23;45444;-84
2023/10/21 14:04:54;;;;;;;;;0.00;0.00;;;;;15.86;100.00;99106.47;6150319;23;45353;-86
2023/10/21 14:07:44;;;;;;;;;0.00;0.00;;;;;15.80;100.00;99110.41;6148821;23;58330;-88
2023/10/21 14:10:32;;;;;;;;;;;;;;;;;;;;;
2023/10/21 14:13:03;;;;;;;;;0.00;0.00;;;;;15.76;100.00;99114.22;6149440;23;74777;-87
2023/10/21 14:18:17;;;;;;;;;0.00;0.00;;;;;15.90;100.00;99107.06;6129557;23;45449;-88
2023/10/21 14:20:43;;;;;;;;;2.25;2.25;;;;;15.93;100.00;99105.06;6125352;23;45779;-84
2023/10/21 14:23:48;;;;;;;;;0.00;0.00;;;;;16.04;100.00;99104.22;6124941;23;46024;-87
2023/10/21 14:26:44;;;;;;;;;0.00;0.00;;;;;16.04;100.00;99098.97;6149678;23;45336;-87
2023/10/21 14:29:23;;;;;;;;;0.00;0.00;;;;;16.11;100.00;99110.69;6302407;22;45335;-86
2023/10/21 14:31:57;;;;;;;;;1.00;1.00;;;;;16.08;100.00;99116.16;6361480;22;45366;-86
2023/10/21 14:34:25;;;;;;;;;0.00;0.00;;;;;16.09;100.00;99115.22;6367203;22;45510;-87
2023/10/21 14:37:08;;;;;;;;;;;;;;;;;;;;;
2023/10/21 14:39:41;;;;;;;;;0.00;0.00;;;;;15.96;100.00;99106.63;6363079;22;70205;-87
2023/10/21 14:42:21;;;;;;;;;0.75;0.00;;;;;15.87;100.00;99137.03;6368138;22;45333;-88
2023/10/21 14:44:57;;;;;;;;;0.00;0.00;;;;;15.87;100.00;99122.09;6340914;22;47117;-86
2023/10/21 14:47:25;;;;;;;;;0.00;0.00;;;;;15.86;100.00;99122.22;6368501;22;45450;-86
2023/10/21 14:50:03;;;;;;;;;0.00;0.00;;;;;15.83;100.00;99117.22;6367329;22;45295;-87
2023/10/21 14:52:29;;;;;;;;;0.00;0.00;;;;;15.79;100.00;99118.44;6367041;22;45390;-87
2023/10/21 14:54:57;;;;;;;;;0.00;0.00;;;;;15.67;100.00;99126.25;6367018;22;45375;-88
2023/10/21 14:57:26;;;;;;;;;0.00;0.00;;;;;15.48;100.00;99137.25;6367512;22;45221;-88
2023/10/21 14:59:54;;;;;;;;;0.00;0.00;;;;;15.46;100.00;99141.78;6369302;22;45313;-87